Time;durP1;ratioP1;P1;durP2;ratioP2;P2;SDS_P1;SDS_P2;PMS_P1;PMS_P2;Temp;Humidity;BMP_temperature;BMP_pressure;BME280_temperature;BME280_humidity;BME280_pressure;Samples;Min_cycle;Max_cycle;Signal;HPM_P1;HPM_P2
2023/04/08 00:00:15;;;;;;;12.65;9.55;;;5.00;99.90;;;;;;5119886;27;20036;-71
2023/04/08 00:02:42;;;;;;;17.20;10.35;;;4.90;99.90;;;;;;5123392;27;20495;-71
2023/04/08 00:05:07;;;;;;;13.82;10.57;;;4.90;99.90;;;;;;5127434;27;20075;-71
2023/04/08 00:07:33;;;;;;;14.40;10.18;;;4.80;99.90;;;;;;5119975;27;20116;-71
2023/04/08 00:09:59;;;;;;;17.77;11.18;;;4.80;99.90;;;;;;5113480;27;20089;-70
2023/04/08 00:12:25;;;;;;;17.08;11.20;;;4.80;99.90;;;;;;5125530;27;20054;-71
2023/04/08 00:14:51;;;;;;;17.30;11.13;;;4.80;99.90;;;;;;5119116;27;20423;-70
2023/04/08 00:17:16;;;;;;;15.75;10.32;;;4.80;99.90;;;;;;5126570;27;20032;-70
2023/04/08 00:19:43;;;;;;;16.75;10.32;;;4.80;99.90;;;;;;5115698;27;20042;-70
2023/04/08 00:22:09;;;;;;;16.13;11.50;;;4.70;99.90;;;;;;5120001;27;20043;-70
2023/04/08 00:24:35;;;;;;;14.02;10.68;;;4.70;99.90;;;;;;5098036;28;20534;-70
2023/04/08 00:27:01;;;;;;;15.30;10.63;;;4.70;99.90;;;;;;5119056;27;20069;-70
2023/04/08 00:29:27;;;;;;;15.63;11.05;;;4.60;99.90;;;;;;5124327;27;20055;-70
2023/04/08 00:31:53;;;;;;;19.70;11.23;;;4.70;99.90;;;;;;5111280;27;20131;-70
2023/04/08 00:34:19;;;;;;;14.75;11.23;;;4.60;99.90;;;;;;5088655;27;20455;-70
2023/04/08 00:36:48;;;;;;;17.48;11.85;;;4.60;99.90;;;;;;5121236;27;20043;-70
2023/04/08 00:39:13;;;;;;;;;;;4.60;99.90;;;;;;5118765;27;20043;-70
2023/04/08 00:41:39;;;;;;;16.55;11.18;;;4.80;99.90;;;;;;5125454;27;19919;-69
2023/04/08 00:44:05;;;;;;;16.10;11.38;;;4.50;99.90;;;;;;5128602;27;20076;-70
2023/04/08 00:46:35;;;;;;;17.70;11.93;;;4.50;99.90;;;;;;5113113;27;20126;-70
2023/04/08 00:49:01;;;;;;;19.10;12.55;;;4.50;99.90;;;;;;5086951;27;20050;-70
2023/04/08 00:51:30;;;;;;;18.17;11.95;;;4.50;99.90;;;;;;5124887;27;20472;-70
2023/04/08 00:53:56;;;;;;;18.85;12.18;;;4.40;99.90;;;;;;5126196;27;20479;-70
2023/04/08 00:56:23;;;;;;;17.60;11.82;;;4.40;99.90;;;;;;5127089;27;20097;-70
2023/04/08 00:58:52;;;;;;;19.48;12.45;;;4.40;99.90;;;;;;5125984;27;20134;-69
2023/04/08 01:01:33;;;;;;;19.38;12.90;;;4.40;99.90;;;;;;5116261;27;20113;-69
2023/04/08 01:04:29;;;;;;;17.10;12.73;;;4.40;99.90;;;;;;5117627;27;20044;-70
2023/04/08 01:07:16;;;;;;;22.23;12.88;;;4.30;99.90;;;;;;5118733;27;20039;-70
2023/04/08 01:09:47;;;;;;;19.40;12.50;;;4.30;99.90;;;;;;5112587;28;20685;-70
2023/04/08 01:12:20;;;;;;;21.65;12.63;;;4.30;99.90;;;;;;5112779;28;20039;-70
2023/04/08 01:14:48;;;;;;;20.02;13.65;;;4.20;99.90;;;;;;5127110;27;20079;-70
2023/04/08 01:17:17;;;;;;;24.58;12.98;;;4.20;99.90;;;;;;5112011;27;20039;-70
2023/04/08 01:19:43;;;;;;;;;;;4.20;99.90;;;;;;5132141;28;20047;-70
2023/04/08 01:22:11;;;;;;;21.88;14.65;;;4.20;99.90;;;;;;5125974;27;20342;-70
2023/04/08 01:24:41;;;;;;;29.48;15.20;;;4.20;99.90;;;;;;5114795;28;20071;-70
2023/04/08 01:27:09;;;;;;;23.17;15.25;;;4.20;99.90;;;;;;5118239;28;20570;-70
2023/04/08 01:29:35;;;;;;;20.52;15.18;;;4.20;99.90;;;;;;5118572;28;20070;-70
2023/04/08 01:32:02;;;;;;;22.98;15.20;;;4.20;99.90;;;;;;5118924;28;20031;-70
2023/04/08 01:34:28;;;;;;;20.95;14.05;;;4.10;99.90;;;;;;5117487;28;20050;-70
2023/04/08 01:36:55;;;;;;;22.83;14.80;;;4.10;99.90;;;;;;5114839;28;20397;-70
2023/04/08 01:39:22;;;;;;;22.13;14.98;;;4.10;99.90;;;;;;5120103;27;20368;-70
2023/04/08 01:41:50;;;;;;;24.48;15.13;;;4.10;99.90;;;;;;5117294;28;20031;-70
2023/04/08 01:44:18;;;;;;;26.20;16.27;;;4.00;99.90;;;;;;5116840;28;20512;-70
2023/04/08 01:46:43;;;;;;;27.13;16.10;;;4.00;99.90;;;;;;5115177;28;20126;-70
2023/04/08 01:49:10;;;;;;;25.65;16.45;;;4.00;99.90;;;;;;5126716;27;20126;-69
2023/04/08 01:51:38;;;;;;;23.75;16.80;;;4.00;99.90;;;;;;5118562;28;20043;-69
2023/04/08 01:54:04;;;;;;;26.45;17.33;;;4.00;99.90;;;;;;5115720;27;20075;-69
2023/04/08 01:56:35;;;;;;;27.85;16.52;;;3.90;99.90;;;;;;5113472;28;20130;-70
2023/04/08 01:59:04;;;;;;;25.70;15.40;;;3.90;99.90;;;;;;5115202;27;20035;-70
2023/04/08 02:01:31;;;;;;;26.52;17.15;;;3.90;99.90;;;;;;5122785;28;20061;-70
2023/04/08 02:03:58;;;;;;;25.13;16.50;;;3.90;99.90;;;;;;5116468;27;20065;-70
2023/04/08 02:06:26;;;;;;;27.00;17.00;;;3.80;99.90;;;;;;5114843;28;20143;-70
2023/04/08 02:08:53;;;;;;;32.80;17.20;;;4.50;99.90;;;;;;5120815;27;20039;-70
2023/04/08 02:11:18;;;;;;;27.50;16.00;;;3.80;99.90;;;;;;5116673;28;21168;-70
2023/04/08 02:13:44;;;;;;;28.08;17.08;;;3.80;99.90;;;;;;5117379;28;20183;-69
2023/04/08 02:16:17;;;;;;;25.05;17.27;;;3.80;99.90;;;;;;5111998;27;20122;-69
2023/04/08 02:18:46;;;;;;;31.58;18.35;;;3.70;99.90;;;;;;5118266;27;20047;-70
2023/04/08 02:21:18;;;;;;;31.00;18.85;;;3.70;99.90;;;;;;5124081;27;20031;-70
2023/04/08 02:23:48;;;;;;;23.33;16.77;;;3.70;99.90;;;;;;5119780;27;20129;-70
2023/04/08 02:26:15;;;;;;;25.05;17.55;;;3.70;99.90;;;;;;5117107;27;20456;-70
2023/04/08 02:28:41;;;;;;;26.00;18.17;;;3.70;99.90;;;;;;5125315;27;20050;-70
2023/04/08 02:31:12;;;;;;;30.83;19.25;;;3.60;99.90;;;;;;5123674;27;20036;-70
2023/04/08 02:33:39;;;;;;;30.85;19.60;;;3.60;99.90;;;;;;5111728;27;20086;-70
2023/04/08 02:36:05;;;;;;;32.50;18.52;;;3.60;99.90;;;;;;5113675;27;20070;-70
2023/04/08 02:38:31;;;;;;;26.63;18.40;;;3.60;99.90;;;;;;5114935;27;20113;-70
2023/04/08 02:40:57;;;;;;;28.30;18.65;;;3.50;99.90;;;;;;5130664;27;20114;-70
2023/04/08 02:43:31;;;;;;;30.67;20.58;;;3.50;99.90;;;;;;5123773;27;20035;-70
2023/04/08 02:45:59;;;;;;;28.05;18.15;;;3.50;99.90;;;;;;5124958;27;20039;-70
2023/04/08 02:48:25;;;;;;;26.90;18.77;;;3.50;99.90;;;;;;5117744;27;20035;-71
2023/04/08 02:50:50;;;;;;;28.70;18.83;;;3.50;99.90;;;;;;5122392;27;20080;-70
2023/04/08 02:53:16;;;;;;;26.52;17.13;;;3.40;99.90;;;;;;5120503;27;20118;-70
2023/04/08 02:55:41;;;;;;;27.45;17.65;;;3.40;99.90;;;;;;5122041;27;20551;-70
2023/04/08 02:58:07;;;;;;;29.08;18.98;;;3.40;99.90;;;;;;5123562;27;20043;-70
2023/04/08 03:00:32;;;;;;;31.02;18.05;;;3.40;99.90;;;;;;5115281;27;20503;-70
2023/04/08 03:02:58;;;;;;;31.80;18.83;;;3.40;99.90;;;;;;5117954;27;20039;-70
2023/04/08 03:05:25;;;;;;;31.55;20.08;;;3.50;99.90;;;;;;5114297;27;20373;-69
2023/04/08 03:07:50;;;;;;;30.20;19.20;;;3.20;99.90;;;;;;5121478;27;20032;-70
2023/04/08 03:10:16;;;;;;;32.25;19.33;;;3.30;99.90;;;;;;5121118;27;20415;-70
2023/04/08 03:12:42;;;;;;;31.17;18.98;;;3.20;99.90;;;;;;5119109;27;20105;-70
2023/04/08 03:15:08;;;;;;;32.03;20.58;;;3.20;99.90;;;;;;5119666;27;20035;-70
2023/04/08 03:17:33;;;;;;;28.88;18.75;;;3.20;99.90;;;;;;5122175;27;20483;-70
2023/04/08 03:20:00;;;;;;;31.33;21.00;;;3.20;99.90;;;;;;5117665;27;20042;-70
2023/04/08 03:22:25;;;;;;;27.10;19.23;;;3.20;99.90;;;;;;5116168;27;20050;-70
2023/04/08 03:24:51;;;;;;;34.45;20.83;;;3.10;99.90;;;;;;5124407;27;20396;-70
2023/04/08 03:27:17;;;;;;;32.10;21.00;;;3.10;99.90;;;;;;5126625;27;20039;-70
2023/04/08 03:29:44;;;;;;;30.73;19.50;;;3.10;99.90;;;;;;5120050;27;20035;-70
2023/04/08 03:32:10;;;;;;;29.98;21.20;;;3.10;99.90;;;;;;5129585;27;20053;-70
2023/04/08 03:34:35;;;;;;;31.08;20.10;;;3.10;99.90;;;;;;5128906;27;20031;-70
2023/04/08 03:37:01;;;;;;;39.92;22.92;;;3.10;99.90;;;;;;5126462;27;20508;-70
2023/04/08 03:39:27;;;;;;;33.60;21.23;;;3.00;99.90;;;;;;5130448;27;20039;-70
2023/04/08 03:41:52;;;;;;;33.90;20.90;;;3.00;99.90;;;;;;5124236;27;20053;-70
2023/04/08 03:44:19;;;;;;;33.88;21.67;;;3.00;99.90;;;;;;5120407;27;20036;-70
2023/04/08 03:46:44;;;;;;;37.58;24.38;;;3.00;99.90;;;;;;5114149;27;20032;-70
2023/04/08 03:49:10;;;;;;;37.55;23.05;;;3.00;99.90;;;;;;5123078;27;20080;-70
2023/04/08 03:51:35;;;;;;;40.95;23.17;;;3.00;99.90;;;;;;5125732;27;20122;-70
2023/04/08 03:54:01;;;;;;;35.10;20.92;;;3.00;99.90;;;;;;5125896;27;20073;-70
2023/04/08 03:56:27;;;;;;;38.00;22.95;;;3.00;99.90;;;;;;5110372;27;20062;-70
2023/04/08 03:58:52;;;;;;;36.47;22.83;;;3.00;99.90;;;;;;5121225;27;20449;-70
2023/04/08 04:01:18;;;;;;;34.78;22.73;;;3.10;99.90;;;;;;5119473;27;20047;-70
2023/04/08 04:03:43;;;;;;;37.03;23.23;;;3.00;99.90;;;;;;5122179;27;20047;-70
2023/04/08 04:06:09;;;;;;;34.65;22.95;;;3.10;99.90;;;;;;5132776;27;20031;-70
2023/04/08 04:08:35;;;;;;;37.97;22.58;;;3.10;99.90;;;;;;5122630;27;20035;-70
2023/04/08 04:11:00;;;;;;;38.97;23.10;;;3.10;99.90;;;;;;5121059;27;20039;-71
2023/04/08 04:13:26;;;;;;;38.92;25.25;;;3.10;99.90;;;;;;5120588;27;20046;-70
2023/04/08 04:15:51;;;;;;;41.55;24.65;;;3.10;99.90;;;;;;5121309;27;20687;-70
2023/04/08 04:18:17;;;;;;;38.70;24.60;;;3.10;99.90;;;;;;5116889;27;20039;-70
2023/04/08 04:20:43;;;;;;;40.80;26.00;;;3.20;99.90;;;;;;5126700;27;20043;-70
2023/04/08 04:23:09;;;;;;;40.95;23.60;;;3.10;99.90;;;;;;5120585;27;20038;-70
2023/04/08 04:25:35;;;;;;;44.80;24.88;;;3.10;99.90;;;;;;5114547;27;20158;-70
2023/04/08 04:28:01;;;;;;;45.25;27.15;;;3.10;99.90;;;;;;5116257;27;20075;-70
2023/04/08 04:30:27;;;;;;;42.08;25.40;;;3.10;99.90;;;;;;5117272;27;20091;-70
2023/04/08 04:32:53;;;;;;;37.28;24.20;;;3.10;99.90;;;;;;5118973;27;20423;-70
2023/04/08 04:35:19;;;;;;;38.83;24.55;;;3.10;99.90;;;;;;5118277;27;20039;-70
2023/04/08 04:37:44;;;;;;;36.08;22.75;;;3.10;99.90;;;;;;5119656;27;20040;-69
2023/04/08 04:40:10;;;;;;;42.35;25.15;;;3.10;99.90;;;;;;5126172;27;20039;-70
2023/04/08 04:42:36;;;;;;;42.85;26.17;;;3.10;99.90;;;;;;5122941;27;20046;-69
2023/04/08 04:45:01;;;;;;;41.50;25.70;;;3.10;99.90;;;;;;5115574;27;20043;-70
2023/04/08 04:47:27;;;;;;;42.80;25.10;;;3.10;99.90;;;;;;5119963;27;20083;-70
2023/04/08 04:49:52;;;;;;;44.40;25.85;;;3.10;99.90;;;;;;5119079;27;20187;-69
2023/04/08 04:52:18;;;;;;;42.28;25.88;;;3.10;99.90;;;;;;5123239;27;20053;-70
2023/04/08 04:54:44;;;;;;;39.90;24.60;;;3.10;99.90;;;;;;5121966;27;20070;-70
2023/04/08 04:57:10;;;;;;;43.13;25.02;;;3.10;99.90;;;;;;5123548;27;20039;-69
2023/04/08 04:59:36;;;;;;;41.65;25.58;;;3.10;99.90;;;;;;5112691;27;20503;-70
2023/04/08 05:02:02;;;;;;;37.70;24.27;;;3.20;99.90;;;;;;5123206;27;20035;-69
2023/04/08 05:04:27;;;;;;;46.53;25.65;;;3.10;99.90;;;;;;5118026;28;20412;-70
2023/04/08 05:06:53;;;;;;;39.97;24.52;;;3.20;99.90;;;;;;5126143;27;20040;-71
2023/04/08 05:09:19;;;;;;;46.95;26.23;;;3.10;99.90;;;;;;5125043;27;20051;-70
2023/04/08 05:11:48;;;;;;;43.85;25.42;;;3.10;99.90;;;;;;5123831;28;20039;-73
2023/04/08 05:14:13;;;;;;;48.92;25.90;;;3.10;99.90;;;;;;5115824;28;20042;-70
2023/04/08 05:16:39;;;;;;;45.13;26.60;;;3.20;99.90;;;;;;5122999;28;20035;-70
2023/04/08 05:19:05;;;;;;;40.50;24.85;;;3.20;99.90;;;;;;5116152;27;20035;-70
2023/04/08 05:21:31;;;;;;;46.60;27.13;;;3.30;99.90;;;;;;5128198;28;20035;-70
2023/04/08 05:23:57;;;;;;;45.42;26.20;;;3.30;99.90;;;;;;5113696;28;20039;-69
2023/04/08 05:26:23;;;;;;;46.67;26.27;;;3.40;99.90;;;;;;5115859;28;20042;-70
2023/04/08 05:28:50;;;;;;;44.70;25.65;;;3.40;99.90;;;;;;5116684;27;20031;-70
2023/04/08 05:31:19;;;;;;;45.22;26.20;;;3.40;99.90;;;;;;5093213;28;20040;-70
2023/04/08 05:33:45;;;;;;;42.72;27.02;;;3.50;99.90;;;;;;5115030;27;20510;-71
2023/04/08 05:36:11;;;;;;;43.67;25.35;;;3.50;99.90;;;;;;5116048;27;20035;-70
2023/04/08 05:38:38;;;;;;;42.25;23.95;;;3.50;99.90;;;;;;5118383;28;20039;-71
2023/04/08 05:41:03;;;;;;;47.67;26.75;;;3.60;99.90;;;;;;5099530;28;20338;-70
2023/04/08 05:43:29;;;;;;;43.10;25.67;;;3.60;99.90;;;;;;5117510;27;20040;-71
2023/04/08 05:45:55;;;;;;;39.40;24.60;;;3.70;99.90;;;;;;5100439;28;20050;-71
2023/04/08 05:48:20;;;;;;;43.85;27.35;;;3.70;99.90;;;;;;5121505;28;20042;-71
2023/04/08 05:50:47;;;;;;;43.05;27.08;;;3.80;99.90;;;;;;5100503;27;20059;-70
2023/04/08 05:53:13;;;;;;;42.53;26.20;;;4.30;99.90;;;;;;5122495;27;20051;-71
2023/04/08 05:55:40;;;;;;;42.80;26.05;;;3.90;99.90;;;;;;5102264;28;20488;-71
2023/04/08 05:58:06;;;;;;;39.85;24.90;;;4.00;99.90;;;;;;5119449;27;20164;-71
2023/04/08 06:00:32;;;;;;;40.60;25.10;;;4.10;99.90;;;;;;5126858;27;20088;-70
2023/04/08 06:02:57;;;;;;;40.50;25.10;;;4.20;99.90;;;;;;5116620;27;20051;-70
2023/04/08 06:05:23;;;;;;;39.65;24.33;;;4.30;99.90;;;;;;5128447;27;20500;-70
2023/04/08 06:07:49;;;;;;;45.15;26.20;;;4.50;99.90;;;;;;5100157;27;20552;-71
2023/04/08 06:10:15;;;;;;;38.30;23.05;;;4.60;99.90;;;;;;5127914;27;20044;-71
2023/04/08 06:12:40;;;;;;;34.80;22.02;;;4.70;99.90;;;;;;5132015;27;20122;-69
2023/04/08 06:15:07;;;;;;;38.92;23.38;;;4.80;99.90;;;;;;5101042;28;20040;-70
2023/04/08 06:17:36;;;;;;;34.13;22.70;;;4.80;99.90;;;;;;5123201;27;20426;-72
2023/04/08 06:20:02;;;;;;;38.47;22.65;;;4.90;99.90;;;;;;5112832;27;20047;-69
2023/04/08 06:22:28;;;;;;;32.83;21.13;;;5.00;99.90;;;;;;5117133;27;20043;-72
2023/04/08 06:24:54;;;;;;;39.08;21.42;;;5.20;99.90;;;;;;5124208;27;20373;-69
2023/04/08 06:27:19;;;;;;;36.95;20.65;;;5.20;99.90;;;;;;5125118;27;20047;-69
2023/04/08 06:29:46;;;;;;;30.73;20.85;;;5.40;99.90;;;;;;5123571;27;20039;-70
2023/04/08 06:32:12;;;;;;;32.40;19.90;;;5.60;99.90;;;;;;5099778;27;20049;-70
2023/04/08 06:34:38;;;;;;;28.30;20.02;;;5.70;99.90;;;;;;5109083;27;20079;-70
2023/04/08 06:37:04;;;;;;;29.05;19.63;;;6.00;99.90;;;;;;5123826;27;20493;-70
2023/04/08 06:39:30;;;;;;;26.77;18.00;;;6.10;99.90;;;;;;5123411;27;20039;-70
2023/04/08 06:41:56;;;;;;;25.60;17.98;;;6.20;99.90;;;;;;5119654;27;20038;-70
2023/04/08 06:44:23;;;;;;;25.27;17.13;;;6.20;99.90;;;;;;5114343;27;20044;-71
2023/04/08 06:46:48;;;;;;;28.65;17.88;;;6.20;99.90;;;;;;5094663;27;20091;-70
2023/04/08 06:49:14;;;;;;;28.15;16.98;;;7.00;99.90;;;;;;5128535;27;20372;-70
2023/04/08 06:51:40;;;;;;;22.98;16.42;;;6.30;99.90;;;;;;5120069;27;20043;-70
2023/04/08 06:54:06;;;;;;;23.67;15.63;;;6.40;99.90;;;;;;5112656;27;20040;-69
2023/04/08 06:56:31;;;;;;;23.10;16.77;;;6.50;99.90;;;;;;5122999;27;20119;-70
2023/04/08 06:58:57;;;;;;;23.15;16.25;;;6.50;99.90;;;;;;5100575;27;20511;-70
2023/04/08 07:01:23;;;;;;;20.00;14.63;;;6.40;99.90;;;;;;5114725;27;20109;-70
2023/04/08 07:03:49;;;;;;;22.35;16.08;;;6.40;99.90;;;;;;5122112;27;20047;-70
2023/04/08 07:06:15;;;;;;;22.15;15.05;;;6.50;99.90;;;;;;5120344;27;20056;-70
2023/04/08 07:08:41;;;;;;;20.95;15.30;;;6.70;99.90;;;;;;5121250;27;20058;-70
2023/04/08 07:11:07;;;;;;;21.83;14.93;;;6.80;99.90;;;;;;5116237;27;20174;-69
2023/04/08 07:13:32;;;;;;;20.83;14.40;;;6.80;99.90;;;;;;5115010;27;20127;-70
2023/04/08 07:15:58;;;;;;;20.52;14.43;;;6.70;99.90;;;;;;5113507;27;20049;-70
2023/04/08 07:18:25;;;;;;;22.48;14.80;;;6.70;99.90;;;;;;5118644;27;20039;-69
2023/04/08 07:20:52;;;;;;;20.70;14.45;;;6.50;99.90;;;;;;5120898;27;20122;-72
2023/04/08 07:23:18;;;;;;;21.45;14.57;;;6.60;99.90;;;;;;5092541;27;20035;-70
2023/04/08 07:25:44;;;;;;;19.77;14.02;;;6.60;99.90;;;;;;5110773;27;20150;-70
2023/04/08 07:28:10;;;;;;;19.48;14.32;;;6.60;99.90;;;;;;5113993;27;20455;-69
2023/04/08 07:30:36;;;;;;;18.52;13.00;;;6.60;99.90;;;;;;5118872;27;20059;-69
2023/04/08 07:33:01;;;;;;;17.10;12.90;;;6.60;99.90;;;;;;5098369;27;20046;-69
2023/04/08 07:35:27;;;;;;;21.30;14.73;;;6.50;99.90;;;;;;5113439;27;20073;-69
2023/04/08 07:37:53;;;;;;;19.90;14.20;;;6.60;99.90;;;;;;5095750;27;20546;-69
2023/04/08 07:40:19;;;;;;;23.67;16.00;;;6.60;99.90;;;;;;5116542;27;20117;-69
2023/04/08 07:42:45;;;;;;;19.75;13.90;;;6.70;99.90;;;;;;5115712;27;20039;-69
2023/04/08 07:45:11;;;;;;;19.70;14.25;;;6.60;99.90;;;;;;5110748;27;20461;-70
2023/04/08 07:47:36;;;;;;;19.83;14.18;;;6.60;99.90;;;;;;5117281;27;20550;-70
2023/04/08 07:50:03;;;;;;;20.08;13.73;;;6.70;99.90;;;;;;5099771;27;20069;-69
2023/04/08 07:52:31;;;;;;;18.63;14.75;;;6.70;99.90;;;;;;5132447;27;20509;-69
2023/04/08 07:54:57;;;;;;;16.77;13.13;;;6.70;99.90;;;;;;5127051;27;20028;-70
2023/04/08 07:57:22;;;;;;;19.98;13.63;;;6.80;99.90;;;;;;5119788;27;20109;-69
2023/04/08 07:59:48;;;;;;;20.88;13.82;;;6.90;99.90;;;;;;5129042;27;20046;-70
2023/04/08 08:02:14;;;;;;;19.52;13.45;;;6.80;99.90;;;;;;5129768;27;20061;-69
2023/04/08 08:04:39;;;;;;;18.33;12.77;;;7.00;99.90;;;;;;5114116;27;20088;-69
2023/04/08 08:07:05;;;;;;;18.45;13.00;;;7.00;99.90;;;;;;5125866;27;20051;-69
2023/04/08 08:09:31;;;;;;;18.02;13.38;;;7.00;99.90;;;;;;5129889;27;20054;-69
2023/04/08 08:11:56;;;;;;;18.55;13.20;;;6.90;99.90;;;;;;5121932;27;20035;-69
2023/04/08 08:14:22;;;;;;;18.35;12.38;;;6.90;99.90;;;;;;5109569;27;20043;-69
2023/04/08 08:16:48;;;;;;;17.38;13.15;;;6.80;99.90;;;;;;5113564;27;20075;-69
2023/04/08 08:19:14;;;;;;;18.48;13.13;;;7.00;99.90;;;;;;5119210;27;20032;-69
2023/04/08 08:21:40;;;;;;;18.60;13.10;;;7.00;99.90;;;;;;5097773;28;20044;-69
2023/04/08 08:24:05;;;;;;;19.10;13.90;;;7.00;99.90;;;;;;5116216;27;20093;-70
2023/04/08 08:26:33;;;;;;;20.85;14.95;;;6.90;99.90;;;;;;5118073;27;20063;-70
2023/04/08 08:29:00;;;;;;;21.02;14.40;;;6.90;99.90;;;;;;5127033;27;20038;-70
2023/04/08 08:31:25;;;;;;;17.45;13.50;;;7.00;99.90;;;;;;5124394;27;20047;-70
2023/04/08 08:33:51;;;;;;;20.25;14.27;;;7.00;99.90;;;;;;5115600;27;20031;-70
2023/04/08 08:36:16;;;;;;;23.27;13.85;;;7.20;99.90;;;;;;5132484;27;20057;-69
2023/04/08 08:38:42;;;;;;;24.55;16.08;;;7.00;99.90;;;;;;5131339;27;20444;-71
2023/04/08 08:41:07;;;;;;;24.98;15.70;;;6.90;99.90;;;;;;5115079;27;20040;-73
2023/04/08 08:43:34;;;;;;;24.38;16.42;;;6.90;99.90;;;;;;5133697;27;20062;-69
2023/04/08 08:46:00;;;;;;;21.00;14.90;;;6.90;99.90;;;;;;5126975;27;20043;-68
2023/04/08 08:48:26;;;;;;;21.17;15.60;;;7.00;99.90;;;;;;5132660;27;20176;-70
2023/04/08 08:50:51;;;;;;;24.00;16.33;;;6.80;99.90;;;;;;5131184;27;20484;-70
2023/04/08 08:53:18;;;;;;;22.60;13.68;;;6.80;99.90;;;;;;5125843;27;20050;-70
2023/04/08 08:55:44;;;;;;;21.92;14.80;;;7.00;99.90;;;;;;5122300;27;20516;-69
2023/04/08 08:58:11;;;;;;;20.58;13.95;;;6.90;99.90;;;;;;5110274;28;20128;-69
2023/04/08 09:00:38;;;;;;;20.02;14.30;;;6.90;99.90;;;;;;5100570;28;20437;-68
2023/04/08 09:03:17;;;;;;;19.52;14.25;;;7.00;99.90;;;;;;5110522;27;20039;-68
2023/04/08 09:05:53;;;;;;;22.63;15.88;;;7.00;99.90;;;;;;5116207;27;20134;-69
2023/04/08 09:08:30;;;;;;;21.08;14.60;;;7.00;99.90;;;;;;5130756;27;20121;-69
2023/04/08 09:11:13;;;;;;;21.80;14.90;;;7.00;99.90;;;;;;5124512;27;20510;-69
2023/04/08 09:13:40;;;;;;;19.20;13.77;;;7.10;99.90;;;;;;5127225;28;20078;-69
2023/04/08 09:16:07;;;;;;;19.35;13.95;;;7.10;99.90;;;;;;5130369;28;20035;-69
2023/04/08 09:18:33;;;;;;;16.85;12.50;;;7.10;99.90;;;;;;5128277;28;20073;-69
2023/04/08 09:21:00;;;;;;;17.77;12.48;;;7.10;99.90;;;;;;5114203;28;20105;-69
2023/04/08 09:23:50;;;;;;;17.33;11.60;;;7.30;99.90;;;;;;5122218;28;20058;-69
2023/04/08 09:26:24;;;;;;;16.40;11.75;;;7.20;99.90;;;;;;5120241;27;20496;-69
2023/04/08 09:29:00;;;;;;;15.52;11.05;;;7.10;99.90;;;;;;5124930;27;20035;-72
2023/04/08 09:31:28;;;;;;;18.05;11.45;;;7.20;99.90;;;;;;5122228;27;20039;-70
2023/04/08 09:33:59;;;;;;;15.05;10.98;;;7.20;99.90;;;;;;5118766;27;20047;-70
2023/04/08 09:36:26;;;;;;;16.33;11.55;;;7.20;99.90;;;;;;5133374;27;20040;-70
2023/04/08 09:38:52;;;;;;;16.80;12.07;;;7.30;99.90;;;;;;5126330;27;20035;-69
2023/04/08 09:41:22;;;;;;;19.60;12.18;;;7.40;99.90;;;;;;5120346;27;20483;-70
2023/04/08 09:43:53;;;;;;;19.20;12.15;;;7.60;99.90;;;;;;5119989;27;20411;-69
2023/04/08 09:46:28;;;;;;;20.23;12.20;;;7.80;99.90;;;;;;5117733;27;20035;-70
2023/04/08 09:49:16;;;;;;;19.85;12.52;;;7.90;99.90;;;;;;5134205;27;20034;-70
2023/04/08 09:51:52;;;;;;;18.80;12.85;;;8.00;99.90;;;;;;5142404;27;20047;-68
2023/04/08 09:54:22;;;;;;;18.52;12.35;;;8.00;99.90;;;;;;5118272;27;20044;-68
2023/04/08 09:56:56;;;;;;;18.90;12.38;;;8.00;99.90;;;;;;5132388;27;20058;-69
2023/04/08 09:59:26;;;;;;;19.92;12.32;;;8.00;99.90;;;;;;5119705;27;20035;-68
2023/04/08 10:01:55;;;;;;;18.30;11.25;;;8.20;99.90;;;;;;5138375;27;20495;-69
2023/04/08 10:04:22;;;;;;;;;;;8.30;99.90;;;;;;5133276;27;20039;-69
2023/04/08 10:06:53;;;;;;;19.90;13.35;;;8.10;99.90;;;;;;5135370;27;19919;-69
2023/04/08 10:09:21;;;;;;;18.60;12.77;;;8.20;99.90;;;;;;5130764;27;20069;-69
2023/04/08 10:11:47;;;;;;;20.08;12.02;;;8.30;99.90;;;;;;5125364;27;20039;-69
2023/04/08 10:14:13;;;;;;;19.50;13.25;;;8.40;99.90;;;;;;5121640;27;20123;-69
2023/04/08 10:16:39;;;;;;;22.35;14.25;;;8.50;99.90;;;;;;5116908;27;20524;-69
2023/04/08 10:19:40;;;;;;;22.05;14.35;;;8.40;99.90;;;;;;5128206;27;20035;-69
2023/04/08 10:22:27;;;;;;;20.90;13.63;;;8.40;99.90;;;;;;5125875;27;20051;-69
2023/04/08 10:25:15;;;;;;;23.63;14.63;;;8.30;99.90;;;;;;5125402;27;20047;-68
2023/04/08 10:27:42;;;;;;;21.73;14.25;;;8.50;99.90;;;;;;5123052;27;20164;-70
2023/04/08 10:30:26;;;;;;;20.75;14.02;;;8.40;99.90;;;;;;5131404;27;20071;-68
2023/04/08 10:32:56;;;;;;;21.55;13.88;;;8.50;99.90;;;;;;5128988;27;20051;-69
2023/04/08 10:35:41;;;;;;;22.48;13.98;;;8.50;99.90;;;;;;5131816;27;20047;-69
2023/04/08 10:38:07;;;;;;;20.88;14.68;;;8.50;99.90;;;;;;5120853;27;20380;-69
2023/04/08 10:40:41;;;;;;;22.05;13.90;;;8.50;99.90;;;;;;5124288;27;20059;-69
2023/04/08 10:43:08;;;;;;;22.02;14.13;;;8.50;99.90;;;;;;5124485;27;20392;-69
2023/04/08 10:45:34;;;;;;;25.80;15.25;;;8.50;99.90;;;;;;5124577;27;20440;-69
2023/04/08 10:48:16;;;;;;;22.20;14.95;;;8.60;99.90;;;;;;5118211;27;20043;-69
2023/04/08 10:50:44;;;;;;;23.20;14.13;;;8.60;99.90;;;;;;5134263;27;20126;-69
2023/04/08 10:53:10;;;;;;;21.50;14.40;;;8.80;99.90;;;;;;5131958;27;20425;-69
2023/04/08 10:55:36;;;;;;;22.02;14.73;;;8.90;99.90;;;;;;5126173;27;20046;-69
2023/04/08 10:58:10;;;;;;;20.30;14.40;;;8.90;99.90;;;;;;5120983;27;20165;-69
2023/04/08 11:00:39;;;;;;;25.83;15.65;;;9.10;99.90;;;;;;5114044;27;20119;-69
2023/04/08 11:03:09;;;;;;;24.63;14.95;;;9.20;99.90;;;;;;5117181;27;20074;-69
2023/04/08 11:05:37;;;;;;;24.17;14.50;;;9.10;99.90;;;;;;5126678;27;20391;-69
2023/04/08 11:08:03;;;;;;;25.70;15.50;;;9.10;99.90;;;;;;5127469;27;20039;-69
2023/04/08 11:10:29;;;;;;;26.80;18.20;;;9.00;99.90;;;;;;5124748;27;20289;-68
2023/04/08 11:12:56;;;;;;;29.08;17.35;;;9.10;99.90;;;;;;5105524;27;20039;-68
2023/04/08 11:15:23;;;;;;;30.65;17.55;;;9.00;99.90;;;;;;5117827;27;20035;-68
2023/04/08 11:17:50;;;;;;;29.90;18.67;;;9.20;99.90;;;;;;5113789;28;20395;-68
2023/04/08 11:20:16;;;;;;;36.17;19.27;;;9.10;99.90;;;;;;5118769;27;20039;-68
2023/04/08 11:22:43;;;;;;;35.63;19.58;;;9.20;99.90;;;;;;5118272;27;20054;-69
2023/04/08 11:25:10;;;;;;;31.00;18.63;;;9.20;99.90;;;;;;5131243;27;20072;-70
2023/04/08 11:27:38;;;;;;;33.22;18.77;;;9.30;99.90;;;;;;5127203;27;20580;-69
2023/04/08 11:30:05;;;;;;;31.25;18.10;;;9.30;99.90;;;;;;5116099;27;20081;-70
2023/04/08 11:32:32;;;;;;;34.90;18.83;;;9.30;99.90;;;;;;5132008;27;20361;-71
2023/04/08 11:35:03;;;;;;;29.63;17.48;;;9.30;99.90;;;;;;5133022;27;20058;-70
2023/04/08 11:37:39;;;;;;;28.73;17.75;;;9.40;99.90;;;;;;5117173;27;20079;-70
2023/04/08 11:40:10;;;;;;;25.30;15.68;;;9.40;99.90;;;;;;5129714;27;20043;-69
2023/04/08 11:42:36;;;;;;;25.25;15.68;;;9.50;99.90;;;;;;5138122;27;20451;-69
2023/04/08 11:45:10;;;;;;;27.83;17.17;;;9.50;99.90;;;;;;5126799;27;20077;-70
2023/04/08 11:47:36;;;;;;;25.48;16.98;;;9.60;99.90;;;;;;5121816;27;20043;-70
2023/04/08 11:50:02;;;;;;;26.80;17.60;;;9.50;99.90;;;;;;5132394;27;20047;-69
2023/04/08 11:52:45;;;;;;;25.25;15.68;;;9.60;99.90;;;;;;5122940;27;20455;-69
2023/04/08 11:55:32;;;;;;;31.52;18.42;;;9.60;99.90;;;;;;5113642;27;20047;-69
2023/04/08 11:58:06;;;;;;;24.50;16.65;;;9.60;99.90;;;;;;5115141;27;20054;-70
2023/04/08 12:00:31;;;;;;;27.15;17.90;;;9.60;99.90;;;;;;5116407;27;20126;-70
2023/04/08 12:02:57;;;;;;;33.90;19.40;;;9.50;99.90;;;;;;5122638;27;20123;-70
2023/04/08 12:05:23;;;;;;;33.13;20.42;;;9.60;99.90;;;;;;5134539;27;20039;-69
2023/04/08 12:07:49;;;;;;;33.25;20.15;;;9.60;99.90;;;;;;5121260;27;20373;-72
2023/04/08 12:10:14;;;;;;;31.75;19.98;;;9.60;99.90;;;;;;5129996;27;20050;-70
2023/04/08 12:12:40;;;;;;;29.77;18.13;;;9.60;99.90;;;;;;5120441;27;20043;-69
2023/04/08 12:15:07;;;;;;;25.58;18.35;;;9.60;99.90;;;;;;5125044;27;20122;-69
2023/04/08 12:17:33;;;;;;;25.70;17.13;;;9.60;99.90;;;;;;5116991;27;20122;-70
2023/04/08 12:19:59;;;;;;;25.17;16.40;;;9.60;99.90;;;;;;5124969;27;20395;-71
2023/04/08 12:22:25;;;;;;;23.73;17.17;;;9.70;99.90;;;;;;5118181;27;20452;-71
2023/04/08 12:24:50;;;;;;;24.73;16.00;;;9.60;99.90;;;;;;5115510;27;20075;-71
2023/04/08 12:27:16;;;;;;;25.35;16.98;;;9.60;99.90;;;;;;5115341;27;20042;-70
2023/04/08 12:29:42;;;;;;;28.13;18.38;;;9.70;99.90;;;;;;5113559;27;20392;-71
2023/04/08 12:32:08;;;;;;;27.25;17.27;;;9.70;99.90;;;;;;5109706;27;20151;-70
2023/04/08 12:34:34;;;;;;;24.77;18.20;;;9.70;99.90;;;;;;5106004;27;20058;-72
2023/04/08 12:36:59;;;;;;;29.65;17.98;;;9.80;99.90;;;;;;5125180;27;20043;-70
2023/04/08 12:39:25;;;;;;;28.75;18.70;;;9.90;99.90;;;;;;5132152;27;20040;-71